createdAt,value
2019-02-10T00:00:17.990Z,17.00
2019-02-10T00:05:26.786Z,18.37
2019-02-10T00:10:31.253Z,18.00
2019-02-10T00:15:40.014Z,17.25
2019-02-10T00:20:46.358Z,18.62
2019-02-10T00:25:52.714Z,16.00
2019-02-10T00:30:58.907Z,16.00
2019-02-10T00:36:05.267Z,14.63
2019-02-10T00:41:09.074Z,16.00
2019-02-10T00:46:16.991Z,13.50
2019-02-10T00:51:27.225Z,14.45
2019-02-10T00:56:30.792Z,14.00
2019-02-10T01:01:39.442Z,15.88
2019-02-10T01:06:45.865Z,15.25
2019-02-10T01:11:51.918Z,14.75
2019-02-10T01:16:58.259Z,13.00
2019-02-10T01:22:04.595Z,13.00
2019-02-10T01:27:08.290Z,12.00
2019-02-10T01:32:13.763Z,13.25
2019-02-10T01:37:20.111Z,12.63
2019-02-10T01:42:23.839Z,15.00
2019-02-10T01:47:30.215Z,17.00
2019-02-10T01:52:35.416Z,16.00
2019-02-10T01:57:41.073Z,16.62
2019-02-10T02:02:47.983Z,18.11
2019-02-10T02:07:51.954Z,13.00
2019-02-10T02:12:56.339Z,16.75
2019-02-10T02:18:02.632Z,15.38
2019-02-10T02:23:10.556Z,15.38
2019-02-10T02:28:16.879Z,15.50
2019-02-10T02:33:21.203Z,16.00
2019-02-10T02:38:26.752Z,15.00
2019-02-10T02:43:31.116Z,15.00
2019-02-10T02:48:37.131Z,13.00
2019-02-10T02:53:44.898Z,13.50
2019-02-10T02:58:49.241Z,17.00
2019-02-10T03:03:55.258Z,15.63
2019-02-10T03:08:59.765Z,18.00
2019-02-10T03:14:08.288Z,17.00
2019-02-10T03:19:16.934Z,18.37
2019-02-10T03:24:21.728Z,20.00
2019-02-10T03:29:28.104Z,15.78
2019-02-10T03:34:35.264Z,16.62
2019-02-10T03:39:43.831Z,19.00
2019-02-10T03:44:47.660Z,17.00
2019-02-10T03:49:56.372Z,17.37
2019-02-10T03:55:04.048Z,16.62
2019-02-10T04:00:12.930Z,18.25
2019-02-10T04:05:17.336Z,15.00
2019-02-10T04:10:23.619Z,15.63
2019-02-10T04:15:28.075Z,18.75
2019-02-10T04:20:36.180Z,16.87
2019-02-10T04:25:40.710Z,18.00
2019-02-10T04:30:44.461Z,17.00
2019-02-10T04:35:51.579Z,18.00
2019-02-10T04:40:55.999Z,16.00
2019-02-10T04:46:04.678Z,17.62
2019-02-10T04:51:13.286Z,15.00
2019-02-10T04:56:18.054Z,17.00
2019-02-10T05:01:23.719Z,17.00
2019-02-10T05:06:28.259Z,16.25
2019-02-10T05:11:31.926Z,17.00
2019-02-10T05:16:40.060Z,17.00
2019-02-10T05:21:47.054Z,14.75
2019-02-10T05:26:52.883Z,16.00
2019-02-10T05:31:59.311Z,14.33
2019-02-10T05:37:04.863Z,13.62
2019-02-10T05:42:11.131Z,13.88
2019-02-10T05:47:15.816Z,17.50
2019-02-10T05:52:23.807Z,15.00
2019-02-10T05:57:28.504Z,14.00
2019-02-10T06:02:37.430Z,14.63
2019-02-10T06:07:45.694Z,13.00
2019-02-10T06:12:53.915Z,13.62
2019-02-10T06:17:58.531Z,16.75
2019-02-10T06:23:06.416Z,15.63
2019-02-10T06:28:10.117Z,15.00
2019-02-10T06:33:14.559Z,15.00
2019-02-10T06:38:22.485Z,16.12
2019-02-10T06:43:28.570Z,16.75
2019-02-10T06:48:37.191Z,15.00
2019-02-10T06:53:45.750Z,16.33
2019-02-10T06:58:49.415Z,16.00
2019-02-10T07:03:55.168Z,14.75
2019-02-10T07:08:58.465Z,15.00
2019-02-10T07:14:08.732Z,19.00
2019-02-10T07:19:32.546Z,16.00
2019-02-10T07:24:45.506Z,17.62
2019-02-10T07:29:55.057Z,15.43
2019-02-10T07:35:19.447Z,15.00
2019-02-10T07:40:35.984Z,16.00
2019-02-10T07:45:49.774Z,16.37
2019-02-10T07:51:00.351Z,15.38
2019-02-10T07:56:25.513Z,14.25
2019-02-10T08:01:37.426Z,20.00
2019-02-10T08:06:50.511Z,19.87
2019-02-10T08:12:04.002Z,17.50
2019-02-10T08:17:19.330Z,9.29
2019-02-10T08:22:29.217Z,15.88
2019-02-10T08:27:36.521Z,17.25
2019-02-10T08:32:48.558Z,17.25
2019-02-10T08:37:54.224Z,15.00
2019-02-10T08:43:13.202Z,13.57
2019-02-10T08:48:30.266Z,12.82
2019-02-10T08:53:35.267Z,13.57
2019-02-10T08:58:39.306Z,16.00
2019-02-10T09:03:45.078Z,16.00
2019-02-10T09:08:51.623Z,15.00
2019-02-10T09:13:56.571Z,15.43
2019-02-10T09:19:00.514Z,16.00
2019-02-10T09:24:05.547Z,13.29
2019-02-10T09:29:12.285Z,14.38
2019-02-10T09:34:16.331Z,16.00
2019-02-10T09:39:21.507Z,15.43
2019-02-10T09:44:24.483Z,11.33
2019-02-10T09:49:30.967Z,14.38
2019-02-10T09:54:34.238Z,13.00
2019-02-10T09:59:39.196Z,11.71
2019-02-10T10:04:46.447Z,12.43
2019-02-10T10:09:52.154Z,13.71
2019-02-10T10:14:58.391Z,14.14
2019-02-10T10:20:02.501Z,10.60
2019-02-10T10:25:08.963Z,13.57
2019-02-10T10:30:17.048Z,15.50
2019-02-10T10:35:20.008Z,15.33
2019-02-10T10:40:25.663Z,14.43
2019-02-10T10:45:33.056Z,14.13
2019-02-10T10:50:38.774Z,21.37
2019-02-10T10:55:45.455Z,15.57
2019-02-10T11:00:52.178Z,13.38
2019-02-10T11:05:59.210Z,13.00
2019-02-10T11:11:07.856Z,19.70
2019-02-10T11:16:15.326Z,12.71
2019-02-10T11:21:21.050Z,11.57
2019-02-10T11:26:26.592Z,10.00
2019-02-10T11:31:30.355Z,10.00
2019-02-10T11:36:35.798Z,7.33
2019-02-10T11:41:40.906Z,8.71
2019-02-10T11:46:45.251Z,10.29
2019-02-10T11:51:52.938Z,11.00
2019-02-10T11:56:58.226Z,7.43
2019-02-10T12:02:03.287Z,10.71
2019-02-10T12:07:09.323Z,10.17
2019-02-10T12:12:18.810Z,10.73
2019-02-10T12:17:26.436Z,11.00
2019-02-10T12:22:30.413Z,12.50
2019-02-10T12:27:38.667Z,12.00
2019-02-10T12:32:45.167Z,9.71
2019-02-10T12:37:55.251Z,12.92
2019-02-10T12:43:01.162Z,11.57
2019-02-10T12:48:05.637Z,7.50
2019-02-10T12:53:10.835Z,14.00
2019-02-10T12:58:18.013Z,10.00
2019-02-10T13:03:23.362Z,9.00
2019-02-10T13:08:28.698Z,9.00
2019-02-10T13:13:34.793Z,10.00
2019-02-10T13:18:39.393Z,10.57
2019-02-10T13:23:44.876Z,9.43
2019-02-10T13:28:51.886Z,12.44
2019-02-10T13:33:58.115Z,10.14
2019-02-10T13:39:05.759Z,10.00
2019-02-10T13:44:11.951Z,9.29
2019-02-10T13:49:17.238Z,9.86
2019-02-10T13:54:20.936Z,15.50
2019-02-10T13:59:24.501Z,14.50
2019-02-10T14:04:27.999Z,12.00
2019-02-10T14:09:34.065Z,10.86
2019-02-10T14:14:37.579Z,15.33
2019-02-10T14:19:41.652Z,17.00
2019-02-10T14:24:46.710Z,15.43
2019-02-10T14:29:50.935Z,17.75
2019-02-10T14:34:56.303Z,12.14
2019-02-10T14:39:59.655Z,15.00
2019-02-10T14:45:07.254Z,16.50
2019-02-10T14:50:13.146Z,16.75
2019-02-10T14:55:20.698Z,16.00
2019-02-10T15:00:26.113Z,17.14
2019-02-10T15:05:34.621Z,20.00
2019-02-10T15:10:41.913Z,27.00
2019-02-10T15:15:45.126Z,22.25
2019-02-10T15:20:53.067Z,25.00
2019-02-10T15:25:59.366Z,18.62
2019-02-10T15:31:04.870Z,20.14
2019-02-10T15:36:13.666Z,20.00
2019-02-10T15:41:22.198Z,21.37
2019-02-10T15:46:26.276Z,21.00
2019-02-10T15:51:36.927Z,20.75
2019-02-10T15:56:36.325Z,18.25
2019-02-10T16:01:43.869Z,16.57
2019-02-10T16:06:48.960Z,18.00
2019-02-10T16:11:57.555Z,20.37
2019-02-10T16:17:05.966Z,20.57
2019-02-10T16:22:14.763Z,18.00
2019-02-10T16:27:19.634Z,17.50
2019-02-10T16:32:27.861Z,21.00
2019-02-10T16:37:32.519Z,20.00
2019-02-10T16:42:40.918Z,26.75
2019-02-10T16:47:44.884Z,23.00
2019-02-10T16:52:55.947Z,23.92
2019-02-10T16:58:00.602Z,23.00
2019-02-10T17:03:04.784Z,20.25
2019-02-10T17:08:13.054Z,21.44
2019-02-10T17:13:20.516Z,24.50
2019-02-10T17:18:27.946Z,16.50
2019-02-10T17:23:33.352Z,23.25
2019-02-10T17:28:41.863Z,20.00
2019-02-10T17:33:51.175Z,18.75
2019-02-10T17:38:58.142Z,19.67
2019-02-10T17:44:05.262Z,19.89
2019-02-10T17:49:09.470Z,22.00
2019-02-10T17:54:15.389Z,18.37
2019-02-10T17:59:20.238Z,16.00
2019-02-10T18:04:26.139Z,18.50
2019-02-10T18:09:32.520Z,20.00
2019-02-10T18:14:37.098Z,20.00
2019-02-10T18:19:45.047Z,17.37
2019-02-10T18:24:53.118Z,20.50
2019-02-10T18:29:57.814Z,20.00
2019-02-10T18:35:04.587Z,19.37
2019-02-10T18:40:09.583Z,19.00
2019-02-10T18:45:18.170Z,22.00
2019-02-10T18:50:22.499Z,20.25
2019-02-10T18:55:28.536Z,24.87
2019-02-10T19:00:38.024Z,22.00
2019-02-10T19:05:42.287Z,21.75
2019-02-10T19:10:47.672Z,23.75
2019-02-10T19:15:56.735Z,19.75
2019-02-10T19:21:00.426Z,24.00
2019-02-10T19:26:06.699Z,22.25
2019-02-10T19:31:14.606Z,23.00
2019-02-10T19:36:19.011Z,20.00
2019-02-10T19:41:23.243Z,21.33
2019-02-10T19:46:32.152Z,22.87
2019-02-10T19:51:38.483Z,21.22
2019-02-10T19:56:45.219Z,21.62
2019-02-10T20:01:50.101Z,20.25
2019-02-10T20:06:56.822Z,22.25
2019-02-10T20:12:04.109Z,22.00
2019-02-10T20:17:07.714Z,22.00
2019-02-10T20:22:15.030Z,20.00
2019-02-10T20:27:22.575Z,21.62
2019-02-10T20:32:29.091Z,22.00
2019-02-10T20:37:42.572Z,25.42
2019-02-10T20:42:48.378Z,18.62
2019-02-10T20:47:57.295Z,22.62
2019-02-10T20:53:06.204Z,23.50
2019-02-10T20:58:15.226Z,21.00
2019-02-10T21:03:20.079Z,23.00
2019-02-10T21:08:28.406Z,21.62
2019-02-10T21:13:33.308Z,18.00
2019-02-10T21:18:41.600Z,20.00
2019-02-10T21:23:50.732Z,21.00
2019-02-10T21:28:59.825Z,21.75
2019-02-10T21:34:07.262Z,19.87
2019-02-10T21:39:16.188Z,21.50
2019-02-10T21:44:20.959Z,20.50
2019-02-10T21:49:29.299Z,22.50
2019-02-10T21:54:38.375Z,24.00
2019-02-10T21:59:42.948Z,22.00
2019-02-10T22:04:48.590Z,21.00
2019-02-10T22:09:57.710Z,22.00
2019-02-10T22:15:07.950Z,22.13
2019-02-10T22:20:16.490Z,22.25
2019-02-10T22:25:22.119Z,22.00
2019-02-10T22:30:27.852Z,23.50
2019-02-10T22:35:37.108Z,23.38
2019-02-10T22:40:41.294Z,22.17
2019-02-10T22:45:49.543Z,22.00
2019-02-10T22:50:57.477Z,22.87
2019-02-10T22:56:06.223Z,22.00
2019-02-10T23:01:15.105Z,20.12
2019-02-10T23:06:23.080Z,22.00
2019-02-10T23:11:30.392Z,19.87
2019-02-10T23:16:39.071Z,20.88
2019-02-10T23:21:45.424Z,20.00
2019-02-10T23:26:51.786Z,19.14
2019-02-10T23:32:00.644Z,22.00
2019-02-10T23:37:04.548Z,21.00
2019-02-10T23:42:12.824Z,20.00
2019-02-10T23:47:20.037Z,22.37
2019-02-10T23:52:26.504Z,22.00
2019-02-10T23:57:34.576Z,23.00
